sensor_id;sensor_type;location;lat;lon;timestamp;P1;durP1;ratioP1;P2;durP2;ratioP2
55037;SDS011;40937;53.594;10.034;2023-09-08T00:00:25;6.07;;;5.57;;
55037;SDS011;40937;53.594;10.034;2023-09-08T00:02:52;5.20;;;4.82;;
55037;SDS011;40937;53.594;10.034;2023-09-08T00:05:19;6.15;;;5.10;;
55037;SDS011;40937;53.594;10.034;2023-09-08T00:07:46;6.20;;;5.53;;
55037;SDS011;40937;53.594;10.034;2023-09-08T00:10:14;9.60;;;5.22;;
55037;SDS011;40937;53.594;10.034;2023-09-08T00:12:41;8.52;;;4.93;;
55037;SDS011;40937;53.594;10.034;2023-09-08T00:15:09;9.90;;;6.00;;
55037;SDS011;40937;53.594;10.034;2023-09-08T00:17:38;6.18;;;5.18;;
55037;SDS011;40937;53.594;10.034;2023-09-08T00:20:06;5.70;;;5.30;;
55037;SDS011;40937;53.594;10.034;2023-09-08T00:22:35;6.00;;;5.18;;
55037;SDS011;40937;53.594;10.034;2023-09-08T00:25:02;7.72;;;5.40;;
55037;SDS011;40937;53.594;10.034;2023-09-08T00:27:30;5.50;;;5.05;;
55037;SDS011;40937;53.594;10.034;2023-09-08T00:29:57;5.55;;;5.05;;
55037;SDS011;40937;53.594;10.034;2023-09-08T00:32:27;6.03;;;5.40;;
55037;SDS011;40937;53.594;10.034;2023-09-08T00:34:56;12.02;;;4.88;;
55037;SDS011;40937;53.594;10.034;2023-09-08T00:37:23;11.43;;;6.00;;
55037;SDS011;40937;53.594;10.034;2023-09-08T00:39:50;5.65;;;5.25;;
55037;SDS011;40937;53.594;10.034;2023-09-08T00:42:18;5.85;;;5.03;;
55037;SDS011;40937;53.594;10.034;2023-09-08T00:44:45;5.47;;;4.90;;
55037;SDS011;40937;53.594;10.034;2023-09-08T00:47:12;4.93;;;4.53;;
55037;SDS011;40937;53.594;10.034;2023-09-08T00:49:39;8.38;;;5.65;;
55037;SDS011;40937;53.594;10.034;2023-09-08T00:52:08;5.72;;;5.15;;
55037;SDS011;40937;53.594;10.034;2023-09-08T00:54:35;5.65;;;5.22;;
55037;SDS011;40937;53.594;10.034;2023-09-08T00:57:02;8.27;;;5.50;;
55037;SDS011;40937;53.594;10.034;2023-09-08T00:59:31;11.45;;;5.80;;
55037;SDS011;40937;53.594;10.034;2023-09-08T01:01:59;6.25;;;5.30;;
55037;SDS011;40937;53.594;10.034;2023-09-08T01:04:26;5.47;;;4.97;;
55037;SDS011;40937;53.594;10.034;2023-09-08T01:06:54;10.65;;;5.65;;
55037;SDS011;40937;53.594;10.034;2023-09-08T01:09:24;5.90;;;5.38;;
55037;SDS011;40937;53.594;10.034;2023-09-08T01:11:51;7.22;;;5.00;;
55037;SDS011;40937;53.594;10.034;2023-09-08T01:14:21;5.57;;;4.90;;
55037;SDS011;40937;53.594;10.034;2023-09-08T01:16:48;8.88;;;5.72;;
55037;SDS011;40937;53.594;10.034;2023-09-08T01:19:15;6.43;;;5.72;;
55037;SDS011;40937;53.594;10.034;2023-09-08T01:21:52;8.18;;;5.70;;
55037;SDS011;40937;53.594;10.034;2023-09-08T01:27:37;7.95;;;5.88;;
55037;SDS011;40937;53.594;10.034;2023-09-08T01:30:05;6.00;;;5.43;;
55037;SDS011;40937;53.594;10.034;2023-09-08T01:32:34;5.47;;;5.07;;
55037;SDS011;40937;53.594;10.034;2023-09-08T01:35:02;7.93;;;5.55;;
55037;SDS011;40937;53.594;10.034;2023-09-08T01:37:31;5.55;;;5.15;;
55037;SDS011;40937;53.594;10.034;2023-09-08T01:39:58;8.52;;;5.18;;
55037;SDS011;40937;53.594;10.034;2023-09-08T01:42:27;5.72;;;5.25;;
55037;SDS011;40937;53.594;10.034;2023-09-08T01:44:54;7.20;;;4.90;;
55037;SDS011;40937;53.594;10.034;2023-09-08T01:47:21;8.50;;;5.63;;
55037;SDS011;40937;53.594;10.034;2023-09-08T01:49:48;7.82;;;5.18;;
55037;SDS011;40937;53.594;10.034;2023-09-08T01:52:15;6.15;;;5.55;;
55037;SDS011;40937;53.594;10.034;2023-09-08T01:54:43;6.30;;;5.80;;
55037;SDS011;40937;53.594;10.034;2023-09-08T01:57:10;5.43;;;4.93;;
55037;SDS011;40937;53.594;10.034;2023-09-08T01:59:38;7.47;;;5.53;;
55037;SDS011;40937;53.594;10.034;2023-09-08T02:02:06;7.10;;;5.85;;
55037;SDS011;40937;53.594;10.034;2023-09-08T02:04:33;6.68;;;5.50;;
55037;SDS011;40937;53.594;10.034;2023-09-08T02:07:00;8.77;;;6.57;;
55037;SDS011;40937;53.594;10.034;2023-09-08T02:09:32;6.10;;;5.60;;
55037;SDS011;40937;53.594;10.034;2023-09-08T02:12:00;8.65;;;5.93;;
55037;SDS011;40937;53.594;10.034;2023-09-08T02:14:28;6.25;;;5.55;;
55037;SDS011;40937;53.594;10.034;2023-09-08T02:16:57;5.43;;;4.95;;
55037;SDS011;40937;53.594;10.034;2023-09-08T02:19:24;6.47;;;5.88;;
55037;SDS011;40937;53.594;10.034;2023-09-08T02:21:51;11.43;;;5.47;;
55037;SDS011;40937;53.594;10.034;2023-09-08T02:24:19;5.78;;;5.32;;
55037;SDS011;40937;53.594;10.034;2023-09-08T02:26:46;6.32;;;5.68;;
55037;SDS011;40937;53.594;10.034;2023-09-08T02:29:14;7.80;;;5.80;;
55037;SDS011;40937;53.594;10.034;2023-09-08T02:31:41;6.20;;;5.68;;
55037;SDS011;40937;53.594;10.034;2023-09-08T02:34:10;6.05;;;5.47;;
55037;SDS011;40937;53.594;10.034;2023-09-08T02:36:38;8.98;;;6.05;;
55037;SDS011;40937;53.594;10.034;2023-09-08T02:39:06;6.05;;;5.55;;
55037;SDS011;40937;53.594;10.034;2023-09-08T02:41:33;7.00;;;5.88;;
55037;SDS011;40937;53.594;10.034;2023-09-08T02:44:01;6.22;;;5.82;;
55037;SDS011;40937;53.594;10.034;2023-09-08T02:46:29;8.80;;;6.30;;
55037;SDS011;40937;53.594;10.034;2023-09-08T02:48:56;6.07;;;5.57;;
55037;SDS011;40937;53.594;10.034;2023-09-08T02:51:24;5.82;;;5.32;;
55037;SDS011;40937;53.594;10.034;2023-09-08T02:53:52;6.68;;;6.18;;
55037;SDS011;40937;53.594;10.034;2023-09-08T02:56:19;9.52;;;6.45;;
55037;SDS011;40937;53.594;10.034;2023-09-08T02:58:46;6.25;;;5.75;;
55037;SDS011;40937;53.594;10.034;2023-09-08T03:01:13;6.75;;;6.03;;
55037;SDS011;40937;53.594;10.034;2023-09-08T03:03:42;6.72;;;6.10;;
55037;SDS011;40937;53.594;10.034;2023-09-08T03:06:11;6.47;;;5.90;;
55037;SDS011;40937;53.594;10.034;2023-09-08T03:08:41;6.90;;;5.95;;
55037;SDS011;40937;53.594;10.034;2023-09-08T03:11:08;7.47;;;6.32;;
55037;SDS011;40937;53.594;10.034;2023-09-08T03:13:35;6.43;;;5.97;;
55037;SDS011;40937;53.594;10.034;2023-09-08T03:16:03;6.50;;;5.90;;
55037;SDS011;40937;53.594;10.034;2023-09-08T03:18:31;6.88;;;6.28;;
55037;SDS011;40937;53.594;10.034;2023-09-08T03:20:59;7.50;;;6.18;;
55037;SDS011;40937;53.594;10.034;2023-09-08T03:23:29;6.32;;;5.82;;
55037;SDS011;40937;53.594;10.034;2023-09-08T03:25:57;7.43;;;6.05;;
55037;SDS011;40937;53.594;10.034;2023-09-08T03:28:25;7.63;;;6.93;;
55037;SDS011;40937;53.594;10.034;2023-09-08T03:30:52;7.22;;;6.65;;
55037;SDS011;40937;53.594;10.034;2023-09-08T03:33:19;7.07;;;6.45;;
55037;SDS011;40937;53.594;10.034;2023-09-08T03:35:46;8.73;;;6.18;;
55037;SDS011;40937;53.594;10.034;2023-09-08T03:38:14;7.57;;;6.70;;
55037;SDS011;40937;53.594;10.034;2023-09-08T03:40:41;6.45;;;5.97;;
55037;SDS011;40937;53.594;10.034;2023-09-08T03:43:10;10.73;;;6.80;;
55037;SDS011;40937;53.594;10.034;2023-09-08T03:45:37;11.70;;;7.38;;
55037;SDS011;40937;53.594;10.034;2023-09-08T03:48:05;7.20;;;6.50;;
55037;SDS011;40937;53.594;10.034;2023-09-08T03:50:33;7.03;;;6.32;;
55037;SDS011;40937;53.594;10.034;2023-09-08T03:53:02;7.90;;;7.25;;
55037;SDS011;40937;53.594;10.034;2023-09-08T03:55:29;6.50;;;6.05;;
55037;SDS011;40937;53.594;10.034;2023-09-08T03:57:58;7.43;;;6.57;;
55037;SDS011;40937;53.594;10.034;2023-09-08T04:00:27;8.55;;;6.45;;
55037;SDS011;40937;53.594;10.034;2023-09-08T04:02:54;6.32;;;5.80;;
55037;SDS011;40937;53.594;10.034;2023-09-08T04:05:22;7.35;;;6.80;;
55037;SDS011;40937;53.594;10.034;2023-09-08T04:07:49;7.22;;;6.47;;
55037;SDS011;40937;53.594;10.034;2023-09-08T04:10:17;7.40;;;6.70;;
55037;SDS011;40937;53.594;10.034;2023-09-08T04:12:44;8.40;;;6.63;;
55037;SDS011;40937;53.594;10.034;2023-09-08T04:15:12;8.27;;;7.47;;
55037;SDS011;40937;53.594;10.034;2023-09-08T04:17:40;6.88;;;6.28;;
55037;SDS011;40937;53.594;10.034;2023-09-08T04:20:08;6.80;;;6.32;;
55037;SDS011;40937;53.594;10.034;2023-09-08T04:22:35;8.18;;;7.35;;
55037;SDS011;40937;53.594;10.034;2023-09-08T04:25:03;7.38;;;6.75;;
55037;SDS011;40937;53.594;10.034;2023-09-08T04:27:31;8.00;;;7.20;;
55037;SDS011;40937;53.594;10.034;2023-09-08T04:30:00;7.47;;;6.82;;
55037;SDS011;40937;53.594;10.034;2023-09-08T04:32:28;7.93;;;7.22;;
55037;SDS011;40937;53.594;10.034;2023-09-08T04:34:58;12.20;;;7.43;;
55037;SDS011;40937;53.594;10.034;2023-09-08T04:37:25;7.28;;;6.68;;
55037;SDS011;40937;53.594;10.034;2023-09-08T04:39:52;7.70;;;7.10;;
55037;SDS011;40937;53.594;10.034;2023-09-08T04:42:19;7.65;;;6.78;;
55037;SDS011;40937;53.594;10.034;2023-09-08T04:44:46;8.30;;;6.85;;
55037;SDS011;40937;53.594;10.034;2023-09-08T04:47:14;8.32;;;7.45;;
55037;SDS011;40937;53.594;10.034;2023-09-08T04:49:42;7.85;;;7.10;;
55037;SDS011;40937;53.594;10.034;2023-09-08T04:52:10;10.73;;;7.80;;
55037;SDS011;40937;53.594;10.034;2023-09-08T04:54:38;8.43;;;7.55;;
55037;SDS011;40937;53.594;10.034;2023-09-08T04:57:05;8.18;;;7.57;;
55037;SDS011;40937;53.594;10.034;2023-09-08T04:59:33;7.55;;;6.85;;
55037;SDS011;40937;53.594;10.034;2023-09-08T05:02:03;8.30;;;7.40;;
55037;SDS011;40937;53.594;10.034;2023-09-08T05:04:31;9.27;;;8.30;;
55037;SDS011;40937;53.594;10.034;2023-09-08T05:07:01;9.00;;;6.90;;
55037;SDS011;40937;53.594;10.034;2023-09-08T05:09:29;8.05;;;7.22;;
55037;SDS011;40937;53.594;10.034;2023-09-08T05:11:57;7.65;;;7.05;;
55037;SDS011;40937;53.594;10.034;2023-09-08T05:14:25;13.23;;;7.82;;
55037;SDS011;40937;53.594;10.034;2023-09-08T05:16:53;8.45;;;7.60;;
55037;SDS011;40937;53.594;10.034;2023-09-08T05:19:24;10.32;;;7.90;;
55037;SDS011;40937;53.594;10.034;2023-09-08T05:21:52;9.98;;;7.93;;
55037;SDS011;40937;53.594;10.034;2023-09-08T05:24:21;8.43;;;7.72;;
55037;SDS011;40937;53.594;10.034;2023-09-08T05:26:49;8.65;;;7.80;;
55037;SDS011;40937;53.594;10.034;2023-09-08T05:29:17;10.90;;;7.28;;
55037;SDS011;40937;53.594;10.034;2023-09-08T05:31:44;11.25;;;8.32;;
55037;SDS011;40937;53.594;10.034;2023-09-08T05:34:12;8.40;;;7.70;;
55037;SDS011;40937;53.594;10.034;2023-09-08T05:36:40;11.88;;;8.18;;
55037;SDS011;40937;53.594;10.034;2023-09-08T05:39:08;7.68;;;6.82;;
55037;SDS011;40937;53.594;10.034;2023-09-08T05:41:39;8.63;;;7.72;;
55037;SDS011;40937;53.594;10.034;2023-09-08T05:44:08;11.57;;;8.18;;
55037;SDS011;40937;53.594;10.034;2023-09-08T05:46:36;8.75;;;7.72;;
55037;SDS011;40937;53.594;10.034;2023-09-08T05:49:03;12.68;;;7.88;;
55037;SDS011;40937;53.594;10.034;2023-09-08T05:51:32;13.02;;;7.93;;
55037;SDS011;40937;53.594;10.034;2023-09-08T05:54:01;11.32;;;8.45;;
55037;SDS011;40937;53.594;10.034;2023-09-08T05:56:29;7.70;;;7.00;;
55037;SDS011;40937;53.594;10.034;2023-09-08T05:58:57;8.15;;;6.90;;
55037;SDS011;40937;53.594;10.034;2023-09-08T06:01:28;10.25;;;7.85;;
55037;SDS011;40937;53.594;10.034;2023-09-08T06:03:55;9.25;;;8.38;;
55037;SDS011;40937;53.594;10.034;2023-09-08T06:06:24;8.82;;;7.60;;
55037;SDS011;40937;53.594;10.034;2023-09-08T06:08:54;7.97;;;7.28;;
55037;SDS011;40937;53.594;10.034;2023-09-08T06:11:21;8.75;;;7.70;;
55037;SDS011;40937;53.594;10.034;2023-09-08T06:13:48;7.72;;;7.13;;
55037;SDS011;40937;53.594;10.034;2023-09-08T06:16:16;10.30;;;7.55;;
55037;SDS011;40937;53.594;10.034;2023-09-08T06:18:44;8.10;;;7.40;;
55037;SDS011;40937;53.594;10.034;2023-09-08T06:23:43;8.75;;;7.85;;
55037;SDS011;40937;53.594;10.034;2023-09-08T06:26:12;8.07;;;7.28;;
55037;SDS011;40937;53.594;10.034;2023-09-08T06:28:39;7.97;;;7.15;;
55037;SDS011;40937;53.594;10.034;2023-09-08T06:31:09;7.97;;;6.95;;
55037;SDS011;40937;53.594;10.034;2023-09-08T06:33:38;16.40;;;8.23;;
55037;SDS011;40937;53.594;10.034;2023-09-08T06:36:08;8.38;;;7.63;;
55037;SDS011;40937;53.594;10.034;2023-09-08T06:38:36;9.95;;;6.78;;
55037;SDS011;40937;53.594;10.034;2023-09-08T06:41:08;8.07;;;6.97;;
55037;SDS011;40937;53.594;10.034;2023-09-08T06:43:36;9.27;;;7.95;;
55037;SDS011;40937;53.594;10.034;2023-09-08T06:46:08;11.30;;;7.15;;
55037;SDS011;40937;53.594;10.034;2023-09-08T06:48:36;9.52;;;7.85;;
55037;SDS011;40937;53.594;10.034;2023-09-08T06:51:06;7.80;;;6.78;;
55037;SDS011;40937;53.594;10.034;2023-09-08T06:53:38;8.27;;;7.28;;
55037;SDS011;40937;53.594;10.034;2023-09-08T06:56:05;8.02;;;7.32;;
55037;SDS011;40937;53.594;10.034;2023-09-08T06:58:33;8.02;;;7.22;;
55037;SDS011;40937;53.594;10.034;2023-09-08T07:01:00;9.40;;;7.70;;
55037;SDS011;40937;53.594;10.034;2023-09-08T07:03:29;7.05;;;6.40;;
55037;SDS011;40937;53.594;10.034;2023-09-08T07:06:05;7.63;;;6.93;;
55037;SDS011;40937;53.594;10.034;2023-09-08T07:08:35;9.20;;;6.57;;
55037;SDS011;40937;53.594;10.034;2023-09-08T07:11:02;7.15;;;6.55;;
55037;SDS011;40937;53.594;10.034;2023-09-08T07:13:29;7.15;;;6.47;;
55037;SDS011;40937;53.594;10.034;2023-09-08T07:15:57;9.38;;;8.05;;
55037;SDS011;40937;53.594;10.034;2023-09-08T07:18:25;8.82;;;6.53;;
55037;SDS011;40937;53.594;10.034;2023-09-08T07:20:52;7.43;;;6.72;;
55037;SDS011;40937;53.594;10.034;2023-09-08T07:23:22;7.47;;;6.88;;
55037;SDS011;40937;53.594;10.034;2023-09-08T07:25:49;8.55;;;6.63;;
55037;SDS011;40937;53.594;10.034;2023-09-08T07:28:21;7.40;;;6.88;;
55037;SDS011;40937;53.594;10.034;2023-09-08T07:30:48;8.57;;;7.32;;
55037;SDS011;40937;53.594;10.034;2023-09-08T07:33:16;8.50;;;7.70;;
55037;SDS011;40937;53.594;10.034;2023-09-08T07:35:45;10.10;;;7.97;;
55037;SDS011;40937;53.594;10.034;2023-09-08T07:38:12;7.50;;;6.85;;
55037;SDS011;40937;53.594;10.034;2023-09-08T07:40:41;7.47;;;6.82;;
55037;SDS011;40937;53.594;10.034;2023-09-08T07:43:09;8.13;;;7.13;;
55037;SDS011;40937;53.594;10.034;2023-09-08T07:45:36;7.43;;;6.88;;
55037;SDS011;40937;53.594;10.034;2023-09-08T07:48:06;7.50;;;6.80;;
55037;SDS011;40937;53.594;10.034;2023-09-08T07:50:33;9.88;;;7.45;;
55037;SDS011;40937;53.594;10.034;2023-09-08T07:53:00;7.25;;;6.63;;
55037;SDS011;40937;53.594;10.034;2023-09-08T07:55:28;7.78;;;7.05;;
55037;SDS011;40937;53.594;10.034;2023-09-08T07:57:57;8.43;;;7.10;;
55037;SDS011;40937;53.594;10.034;2023-09-08T08:00:26;7.50;;;6.80;;
55037;SDS011;40937;53.594;10.034;2023-09-08T08:02:54;6.88;;;6.38;;
55037;SDS011;40937;53.594;10.034;2023-09-08T08:05:23;10.63;;;7.05;;
55037;SDS011;40937;53.594;10.034;2023-09-08T08:07:50;8.25;;;6.78;;
55037;SDS011;40937;53.594;10.034;2023-09-08T08:10:18;7.72;;;6.78;;
55037;SDS011;40937;53.594;10.034;2023-09-08T08:12:46;7.63;;;7.03;;
55037;SDS011;40937;53.594;10.034;2023-09-08T08:15:18;7.90;;;6.45;;
55037;SDS011;40937;53.594;10.034;2023-09-08T08:17:49;7.20;;;6.60;;
55037;SDS011;40937;53.594;10.034;2023-09-08T08:20:26;7.10;;;6.43;;
55037;SDS011;40937;53.594;10.034;2023-09-08T08:22:54;6.85;;;6.25;;
55037;SDS011;40937;53.594;10.034;2023-09-08T08:25:21;7.10;;;6.32;;
55037;SDS011;40937;53.594;10.034;2023-09-08T08:27:49;6.97;;;6.30;;
55037;SDS011;40937;53.594;10.034;2023-09-08T08:30:20;6.97;;;6.13;;
55037;SDS011;40937;53.594;10.034;2023-09-08T08:32:48;6.55;;;5.95;;
55037;SDS011;40937;53.594;10.034;2023-09-08T08:35:17;9.05;;;6.30;;
55037;SDS011;40937;53.594;10.034;2023-09-08T08:37:44;6.68;;;6.07;;
55037;SDS011;40937;53.594;10.034;2023-09-08T08:40:12;8.70;;;6.25;;
55037;SDS011;40937;53.594;10.034;2023-09-08T08:42:44;7.10;;;6.60;;
55037;SDS011;40937;53.594;10.034;2023-09-08T08:45:11;7.40;;;6.38;;
55037;SDS011;40937;53.594;10.034;2023-09-08T08:47:41;10.85;;;6.43;;
55037;SDS011;40937;53.594;10.034;2023-09-08T08:50:09;7.82;;;6.70;;
55037;SDS011;40937;53.594;10.034;2023-09-08T08:52:43;7.88;;;6.38;;
55037;SDS011;40937;53.594;10.034;2023-09-08T08:55:12;9.68;;;6.20;;
55037;SDS011;40937;53.594;10.034;2023-09-08T08:57:41;7.55;;;6.75;;
55037;SDS011;40937;53.594;10.034;2023-09-08T09:00:14;9.20;;;6.55;;
55037;SDS011;40937;53.594;10.034;2023-09-08T09:02:47;7.30;;;6.60;;
55037;SDS011;40937;53.594;10.034;2023-09-08T09:05:25;8.45;;;6.22;;
55037;SDS011;40937;53.594;10.034;2023-09-08T09:07:53;8.10;;;6.50;;
55037;SDS011;40937;53.594;10.034;2023-09-08T09:10:25;8.40;;;6.90;;
55037;SDS011;40937;53.594;10.034;2023-09-08T09:13:00;8.32;;;6.47;;
55037;SDS011;40937;53.594;10.034;2023-09-08T09:15:29;8.50;;;6.55;;
55037;SDS011;40937;53.594;10.034;2023-09-08T09:18:06;8.20;;;6.20;;
55037;SDS011;40937;53.594;10.034;2023-09-08T09:20:35;9.75;;;6.20;;
55037;SDS011;40937;53.594;10.034;2023-09-08T09:23:03;7.03;;;6.22;;
55037;SDS011;40937;53.594;10.034;2023-09-08T09:25:31;8.70;;;6.45;;
55037;SDS011;40937;53.594;10.034;2023-09-08T09:28:03;8.73;;;5.63;;
55037;SDS011;40937;53.594;10.034;2023-09-08T09:30:48;8.32;;;6.38;;
55037;SDS011;40937;53.594;10.034;2023-09-08T09:33:22;8.13;;;6.18;;
55037;SDS011;40937;53.594;10.034;2023-09-08T09:35:58;6.72;;;5.95;;
55037;SDS011;40937;53.594;10.034;2023-09-08T09:38:25;7.80;;;6.63;;
55037;SDS011;40937;53.594;10.034;2023-09-08T09:40:54;8.52;;;5.80;;
55037;SDS011;40937;53.594;10.034;2023-09-08T09:43:28;6.72;;;6.13;;
55037;SDS011;40937;53.594;10.034;2023-09-08T09:45:57;7.00;;;6.47;;
55037;SDS011;40937;53.594;10.034;2023-09-08T09:48:31;5.97;;;5.38;;
55037;SDS011;40937;53.594;10.034;2023-09-08T09:50:59;6.85;;;6.35;;
55037;SDS011;40937;53.594;10.034;2023-09-08T09:53:42;11.10;;;5.90;;
55037;SDS011;40937;53.594;10.034;2023-09-08T09:56:09;6.38;;;5.78;;
55037;SDS011;40937;53.594;10.034;2023-09-08T09:58:38;7.22;;;6.00;;
55037;SDS011;40937;53.594;10.034;2023-09-08T10:01:07;11.63;;;6.38;;
55037;SDS011;40937;53.594;10.034;2023-09-08T10:03:39;6.10;;;5.50;;
55037;SDS011;40937;53.594;10.034;2023-09-08T10:06:07;8.25;;;5.82;;
55037;SDS011;40937;53.594;10.034;2023-09-08T10:08:35;7.32;;;5.85;;
55037;SDS011;40937;53.594;10.034;2023-09-08T10:11:05;10.32;;;5.88;;
55037;SDS011;40937;53.594;10.034;2023-09-08T10:13:36;6.10;;;5.32;;
55037;SDS011;40937;53.594;10.034;2023-09-08T10:16:06;6.55;;;5.63;;
55037;SDS011;40937;53.594;10.034;2023-09-08T10:18:35;5.47;;;4.97;;
55037;SDS011;40937;53.594;10.034;2023-09-08T10:21:04;7.60;;;5.93;;
55037;SDS011;40937;53.594;10.034;2023-09-08T10:23:36;11.90;;;6.45;;
55037;SDS011;40937;53.594;10.034;2023-09-08T10:26:08;8.70;;;5.70;;
55037;SDS011;40937;53.594;10.034;2023-09-08T10:28:37;9.32;;;4.97;;
55037;SDS011;40937;53.594;10.034;2023-09-08T10:31:05;6.20;;;5.20;;
55037;SDS011;40937;53.594;10.034;2023-09-08T10:33:33;7.07;;;5.18;;
55037;SDS011;40937;53.594;10.034;2023-09-08T10:36:03;5.22;;;4.72;;
55037;SDS011;40937;53.594;10.034;2023-09-08T10:38:33;5.93;;;5.38;;
55037;SDS011;40937;53.594;10.034;2023-09-08T10:43:56;6.75;;;5.15;;
55037;SDS011;40937;53.594;10.034;2023-09-08T10:46:27;10.85;;;5.72;;
55037;SDS011;40937;53.594;10.034;2023-09-08T10:48:55;6.78;;;5.43;;
55037;SDS011;40937;53.594;10.034;2023-09-08T10:51:29;5.45;;;4.95;;
55037;SDS011;40937;53.594;10.034;2023-09-08T10:53:56;5.85;;;5.22;;
55037;SDS011;40937;53.594;10.034;2023-09-08T10:56:26;6.25;;;5.75;;
55037;SDS011;40937;53.594;10.034;2023-09-08T10:58:55;6.85;;;5.45;;
55037;SDS011;40937;53.594;10.034;2023-09-08T11:01:22;6.65;;;5.40;;
55037;SDS011;40937;53.594;10.034;2023-09-08T11:03:53;6.97;;;5.40;;
55037;SDS011;40937;53.594;10.034;2023-09-08T11:06:20;5.60;;;5.10;;
55037;SDS011;40937;53.594;10.034;2023-09-08T11:08:50;8.48;;;6.00;;
55037;SDS011;40937;53.594;10.034;2023-09-08T11:11:21;6.60;;;5.78;;
55037;SDS011;40937;53.594;10.034;2023-09-08T11:13:48;5.55;;;5.03;;
55037;SDS011;40937;53.594;10.034;2023-09-08T11:16:16;8.15;;;5.47;;
55037;SDS011;40937;53.594;10.034;2023-09-08T11:18:50;6.33;;;5.20;;
55037;SDS011;40937;53.594;10.034;2023-09-08T11:21:18;7.93;;;5.38;;
55037;SDS011;40937;53.594;10.034;2023-09-08T11:23:46;8.88;;;5.80;;
55037;SDS011;40937;53.594;10.034;2023-09-08T11:26:15;9.05;;;5.05;;
55037;SDS011;40937;53.594;10.034;2023-09-08T11:28:43;9.27;;;5.60;;
55037;SDS011;40937;53.594;10.034;2023-09-08T11:31:13;9.00;;;4.97;;
55037;SDS011;40937;53.594;10.034;2023-09-08T11:33:41;5.80;;;5.05;;
55037;SDS011;40937;53.594;10.034;2023-09-08T11:36:11;4.93;;;4.57;;
55037;SDS011;40937;53.594;10.034;2023-09-08T11:38:42;6.25;;;5.40;;
55037;SDS011;40937;53.594;10.034;2023-09-08T11:41:10;6.15;;;4.70;;
55037;SDS011;40937;53.594;10.034;2023-09-08T11:43:39;6.38;;;4.53;;
55037;SDS011;40937;53.594;10.034;2023-09-08T11:46:07;8.10;;;5.00;;
55037;SDS011;40937;53.594;10.034;2023-09-08T11:48:36;7.25;;;5.15;;
55037;SDS011;40937;53.594;10.034;2023-09-08T11:51:05;5.15;;;4.85;;
55037;SDS011;40937;53.594;10.034;2023-09-08T11:53:33;5.00;;;4.47;;
55037;SDS011;40937;53.594;10.034;2023-09-08T11:56:00;5.32;;;4.90;;
55037;SDS011;40937;53.594;10.034;2023-09-08T11:58:28;7.28;;;4.85;;
55037;SDS011;40937;53.594;10.034;2023-09-08T12:00:57;13.90;;;5.45;;
55037;SDS011;40937;53.594;10.034;2023-09-08T12:03:25;5.28;;;4.47;;
55037;SDS011;40937;53.594;10.034;2023-09-08T12:05:52;6.38;;;4.75;;
55037;SDS011;40937;53.594;10.034;2023-09-08T12:08:20;8.73;;;5.85;;
55037;SDS011;40937;53.594;10.034;2023-09-08T12:10:53;6.22;;;5.05;;
55037;SDS011;40937;53.594;10.034;2023-09-08T12:13:20;6.03;;;5.15;;
55037;SDS011;40937;53.594;10.034;2023-09-08T12:15:49;5.35;;;4.95;;
55037;SDS011;40937;53.594;10.034;2023-09-08T12:18:18;7.95;;;5.38;;
55037;SDS011;40937;53.594;10.034;2023-09-08T12:20:46;6.60;;;4.55;;
55037;SDS011;40937;53.594;10.034;2023-09-08T12:23:17;9.40;;;4.80;;
55037;SDS011;40937;53.594;10.034;2023-09-08T12:25:45;5.28;;;4.72;;
55037;SDS011;40937;53.594;10.034;2023-09-08T12:28:13;6.68;;;4.63;;
55037;SDS011;40937;53.594;10.034;2023-09-08T12:30:40;7.53;;;5.20;;
55037;SDS011;40937;53.594;10.034;2023-09-08T12:33:08;7.45;;;4.72;;
55037;SDS011;40937;53.594;10.034;2023-09-08T12:35:38;9.77;;;4.70;;
55037;SDS011;40937;53.594;10.034;2023-09-08T12:38:05;11.85;;;4.82;;
55037;SDS011;40937;53.594;10.034;2023-09-08T12:40:33;4.55;;;4.15;;
55037;SDS011;40937;53.594;10.034;2023-09-08T12:43:02;5.07;;;4.68;;
55037;SDS011;40937;53.594;10.034;2023-09-08T12:45:29;5.07;;;4.78;;
55037;SDS011;40937;53.594;10.034;2023-09-08T12:47:57;9.05;;;4.93;;
55037;SDS011;40937;53.594;10.034;2023-09-08T12:50:27;7.18;;;4.55;;
55037;SDS011;40937;53.594;10.034;2023-09-08T12:52:56;5.20;;;4.70;;
55037;SDS011;40937;53.594;10.034;2023-09-08T12:55:23;6.68;;;4.75;;
55037;SDS011;40937;53.594;10.034;2023-09-08T12:57:51;8.27;;;4.47;;
55037;SDS011;40937;53.594;10.034;2023-09-08T13:00:20;5.88;;;4.72;;
55037;SDS011;40937;53.594;10.034;2023-09-08T13:02:49;7.72;;;5.03;;
55037;SDS011;40937;53.594;10.034;2023-09-08T13:05:16;10.43;;;4.15;;
55037;SDS011;40937;53.594;10.034;2023-09-08T13:07:43;4.88;;;4.47;;
55037;SDS011;40937;53.594;10.034;2023-09-08T13:10:12;8.43;;;4.85;;
55037;SDS011;40937;53.594;10.034;2023-09-08T13:12:39;5.63;;;5.05;;
55037;SDS011;40937;53.594;10.034;2023-09-08T13:15:06;13.07;;;4.55;;
55037;SDS011;40937;53.594;10.034;2023-09-08T13:17:34;5.70;;;4.32;;
55037;SDS011;40937;53.594;10.034;2023-09-08T13:20:01;7.90;;;4.10;;
55037;SDS011;40937;53.594;10.034;2023-09-08T13:22:29;3.97;;;3.67;;
55037;SDS011;40937;53.594;10.034;2023-09-08T13:24:57;5.63;;;3.47;;
55037;SDS011;40937;53.594;10.034;2023-09-08T13:27:25;4.72;;;3.88;;
55037;SDS011;40937;53.594;10.034;2023-09-08T13:29:53;3.83;;;3.53;;
55037;SDS011;40937;53.594;10.034;2023-09-08T13:32:20;3.35;;;3.15;;
55037;SDS011;40937;53.594;10.034;2023-09-08T13:34:48;3.42;;;3.22;;
55037;SDS011;40937;53.594;10.034;2023-09-08T13:37:15;4.13;;;3.72;;
55037;SDS011;40937;53.594;10.034;2023-09-08T13:39:43;5.70;;;3.72;;
55037;SDS011;40937;53.594;10.034;2023-09-08T13:42:10;5.93;;;4.20;;
55037;SDS011;40937;53.594;10.034;2023-09-08T13:44:38;5.68;;;4.05;;
55037;SDS011;40937;53.594;10.034;2023-09-08T13:47:05;3.70;;;3.40;;
55037;SDS011;40937;53.594;10.034;2023-09-08T13:49:33;6.97;;;4.03;;
55037;SDS011;40937;53.594;10.034;2023-09-08T13:52:00;6.20;;;3.97;;
55037;SDS011;40937;53.594;10.034;2023-09-08T13:54:27;6.90;;;4.10;;
55037;SDS011;40937;53.594;10.034;2023-09-08T13:56:58;4.72;;;3.72;;
55037;SDS011;40937;53.594;10.034;2023-09-08T13:59:26;11.60;;;4.22;;
55037;SDS011;40937;53.594;10.034;2023-09-08T14:01:55;6.35;;;4.03;;
55037;SDS011;40937;53.594;10.034;2023-09-08T14:04:24;4.65;;;3.80;;
55037;SDS011;40937;53.594;10.034;2023-09-08T14:06:52;5.95;;;3.95;;
55037;SDS011;40937;53.594;10.034;2023-09-08T14:09:19;4.43;;;3.97;;
55037;SDS011;40937;53.594;10.034;2023-09-08T14:11:47;4.10;;;3.72;;
55037;SDS011;40937;53.594;10.034;2023-09-08T14:14:14;4.28;;;3.95;;
55037;SDS011;40937;53.594;10.034;2023-09-08T14:16:41;4.22;;;3.80;;
55037;SDS011;40937;53.594;10.034;2023-09-08T14:19:09;6.88;;;3.80;;
55037;SDS011;40937;53.594;10.034;2023-09-08T14:21:37;4.20;;;3.90;;
55037;SDS011;40937;53.594;10.034;2023-09-08T14:24:05;4.60;;;3.83;;
55037;SDS011;40937;53.594;10.034;2023-09-08T14:26:32;4.85;;;3.88;;
55037;SDS011;40937;53.594;10.034;2023-09-08T14:29:00;4.43;;;3.78;;
55037;SDS011;40937;53.594;10.034;2023-09-08T14:31:28;7.22;;;4.28;;
55037;SDS011;40937;53.594;10.034;2023-09-08T14:33:55;4.30;;;3.90;;
55037;SDS011;40937;53.594;10.034;2023-09-08T14:36:23;5.47;;;4.95;;
55037;SDS011;40937;53.594;10.034;2023-09-08T14:38:51;3.80;;;3.60;;
55037;SDS011;40937;53.594;10.034;2023-09-08T14:41:18;4.28;;;3.83;;
55037;SDS011;40937;53.594;10.034;2023-09-08T14:43:45;4.43;;;4.07;;
55037;SDS011;40937;53.594;10.034;2023-09-08T14:46:12;4.82;;;4.18;;
55037;SDS011;40937;53.594;10.034;2023-09-08T14:48:39;4.75;;;4.30;;